Time,TemperatureF,DewpointF,PressureIn,WindDirection,WindDirectionDegrees,WindSpeedMPH,WindSpeedGustMPH,Humidity,HourlyPrecipIn,Conditions,Clouds,dailyrainin,SolarRadiationWatts/m^2,SoftwareType,DateUTC
2013-01-20 00:12:00,29.0,17.0,-100.00,South,178,8.0,15.0,61,0.00,,,0.00,0.000000,,2013-01-20 07:12:00,
2013-01-20 00:22:00,29.0,17.0,-100.00,South,178,8.0,15.0,61,0.00,,,0.00,0.000000,,2013-01-20 07:22:00,
2013-01-20 00:32:00,29.0,17.0,-100.00,South,178,8.0,15.0,61,0.00,,,0.00,0.000000,,2013-01-20 07:32:00,
2013-01-20 00:42:00,29.0,17.0,-100.00,South,178,8.0,15.0,61,0.00,,,0.00,0.000000,,2013-01-20 07:42:00,
2013-01-20 00:51:00,30.0,15.0,-100.00,South,179,8.0,15.0,53,0.00,,,0.00,0.000000,,2013-01-20 07:51:00,
2013-01-20 01:22:00,30.0,15.0,-100.00,South,179,8.0,15.0,53,0.00,,,0.00,0.000000,,2013-01-20 08:22:00,
2013-01-20 01:32:00,30.0,15.0,-100.00,South,179,8.0,15.0,53,0.00,,,0.00,0.000000,,2013-01-20 08:32:00,
2013-01-20 01:42:00,30.0,15.0,-100.00,South,179,8.0,15.0,53,0.00,,,0.00,0.000000,,2013-01-20 08:42:00,
2013-01-20 01:51:00,29.0,14.0,-100.00,South,184,7.0,10.0,52,0.00,,,0.00,0.000000,,2013-01-20 08:51:00,
2013-01-20 02:12:00,29.0,14.0,-100.00,South,184,7.0,10.0,52,0.00,,,0.00,0.000000,,2013-01-20 09:12:00,
2013-01-20 02:22:00,29.0,14.0,-100.00,South,184,7.0,10.0,52,0.00,,,0.00,0.000000,,2013-01-20 09:22:00,
2013-01-20 02:33:00,29.0,14.0,-100.00,South,184,7.0,10.0,52,0.00,,,0.00,0.000000,,2013-01-20 09:33:00,
2013-01-20 02:42:00,29.0,14.0,-100.00,South,184,7.0,10.0,52,0.00,,,0.00,0.000000,,2013-01-20 09:42:00,
2013-01-20 02:51:00,31.0,13.0,-100.00,South,184,4.0,9.0,46,0.00,,,0.00,0.000000,,2013-01-20 09:51:00,
2013-01-20 03:22:00,31.0,13.0,-100.00,South,184,4.0,9.0,46,0.00,,,0.00,0.000000,,2013-01-20 10:22:00,
2013-01-20 03:32:00,31.0,13.0,-100.00,South,184,4.0,9.0,46,0.00,,,0.00,0.000000,,2013-01-20 10:32:00,
2013-01-20 03:42:00,31.0,13.0,-100.00,South,184,4.0,9.0,46,0.00,,,0.00,0.000000,,2013-01-20 10:42:00,
2013-01-20 03:51:00,32.0,12.0,-100.00,NNW,336,8.0,14.0,43,0.00,,,0.00,0.000000,,2013-01-20 10:51:00,
2013-01-20 04:12:00,32.0,12.0,-100.00,NNW,336,8.0,14.0,43,0.00,,,0.00,0.000000,,2013-01-20 11:12:00,
2013-01-20 04:22:00,32.0,12.0,-100.00,NNW,336,8.0,14.0,43,0.00,,,0.00,0.000000,,2013-01-20 11:22:00,
2013-01-20 04:33:00,32.0,12.0,-100.00,NNW,336,8.0,14.0,43,0.00,,,0.00,0.000000,,2013-01-20 11:33:00,
2013-01-20 04:42:00,32.0,12.0,-100.00,NNW,336,8.0,14.0,43,0.00,,,0.00,0.000000,,2013-01-20 11:42:00,
2013-01-20 04:51:00,29.0,14.0,-100.00,NNW,327,17.0,25.0,53,0.00,,,0.00,0.000000,,2013-01-20 11:51:00,
2013-01-20 05:23:00,29.0,14.0,-100.00,NNW,327,17.0,25.0,53,0.00,,,0.00,0.000000,,2013-01-20 12:23:00,
2013-01-20 05:33:00,29.0,14.0,-100.00,NNW,327,17.0,25.0,53,0.00,,,0.00,0.000000,,2013-01-20 12:33:00,
2013-01-20 05:43:00,29.0,14.0,-100.00,NNW,327,17.0,25.0,53,0.00,,,0.00,0.000000,,2013-01-20 12:43:00,
2013-01-20 05:51:00,26.0,18.0,-100.00,North,350,21.0,32.0,70,0.00,,,0.00,0.000000,,2013-01-20 12:51:00,
2013-01-20 06:12:00,26.0,18.0,-100.00,North,350,21.0,32.0,70,0.00,,,0.00,0.000000,,2013-01-20 13:12:00,
2013-01-20 06:23:00,26.0,18.0,-100.00,North,350,21.0,32.0,70,0.00,,,0.00,0.000000,,2013-01-20 13:23:00,
2013-01-20 06:33:00,26.0,18.0,-100.00,North,350,21.0,32.0,70,0.00,,,0.00,0.000000,,2013-01-20 13:33:00,
2013-01-20 06:43:00,26.0,18.0,-100.00,North,350,21.0,32.0,70,0.00,,,0.00,0.000000,,2013-01-20 13:43:00,
2013-01-20 06:51:00,23.0,18.0,-100.00,North,352,22.0,28.0,81,0.00,,,0.00,0.000000,,2013-01-20 13:51:00,
2013-01-20 07:12:00,23.0,18.0,-100.00,North,352,22.0,28.0,81,0.00,,,0.00,0.000000,,2013-01-20 14:12:00,
2013-01-20 07:23:00,23.0,18.0,-100.00,North,352,22.0,28.0,81,0.00,,,0.00,0.000000,,2013-01-20 14:23:00,
2013-01-20 07:33:00,23.0,18.0,-100.00,North,352,22.0,28.0,81,0.00,,,0.00,0.000000,,2013-01-20 14:33:00,
2013-01-20 07:42:00,23.0,18.0,-100.00,North,352,22.0,28.0,81,0.00,,,0.00,0.000000,,2013-01-20 14:42:00,
2013-01-20 07:51:00,21.0,17.0,-100.00,NNW,344,17.0,23.0,83,0.00,,,0.00,0.000000,,2013-01-20 14:51:00,
2013-01-20 08:12:00,21.0,17.0,-100.00,NNW,344,17.0,23.0,83,0.00,,,0.00,0.000000,,2013-01-20 15:12:00,
2013-01-20 08:23:00,21.0,17.0,-100.00,NNW,344,17.0,23.0,83,0.00,,,0.00,0.000000,,2013-01-20 15:23:00,
2013-01-20 08:33:00,21.0,17.0,-100.00,NNW,344,17.0,23.0,83,0.00,,,0.00,0.000000,,2013-01-20 15:33:00,
2013-01-20 08:42:00,21.0,17.0,-100.00,NNW,344,17.0,23.0,83,0.00,,,0.00,0.000000,,2013-01-20 15:42:00,
2013-01-20 08:51:00,21.0,17.0,-100.00,North,349,10.0,18.0,83,0.00,,,0.00,27.000000,,2013-01-20 15:51:00,
2013-01-20 09:12:00,21.0,17.0,-100.00,North,349,10.0,18.0,83,0.00,,,0.00,27.000000,,2013-01-20 16:12:00,
2013-01-20 09:23:00,21.0,17.0,-100.00,North,349,10.0,18.0,83,0.00,,,0.00,27.000000,,2013-01-20 16:23:00,
2013-01-20 09:33:00,21.0,17.0,-100.00,North,349,10.0,18.0,83,0.00,,,0.00,27.000000,,2013-01-20 16:33:00,
2013-01-20 09:43:00,21.0,17.0,-100.00,North,349,10.0,18.0,83,0.00,,,0.00,27.000000,,2013-01-20 16:43:00,
2013-01-20 09:51:00,21.0,15.0,-100.00,North,353,10.0,17.0,76,0.00,,,0.00,109.000000,,2013-01-20 16:51:00,
2013-01-20 10:13:00,21.0,15.0,-100.00,North,353,10.0,17.0,76,0.00,,,0.00,109.000000,,2013-01-20 17:13:00,
2013-01-20 10:22:00,21.0,15.0,-100.00,North,353,10.0,17.0,76,0.00,,,0.00,109.000000,,2013-01-20 17:22:00,
2013-01-20 10:33:00,21.0,15.0,-100.00,North,353,10.0,17.0,76,0.00,,,0.00,109.000000,,2013-01-20 17:33:00,
2013-01-20 10:42:00,21.0,15.0,-100.00,North,353,10.0,17.0,76,0.00,,,0.00,109.000000,,2013-01-20 17:42:00,
2013-01-20 10:51:00,21.0,13.0,-100.00,NNW,344,11.0,17.0,71,0.00,,,0.00,137.000000,,2013-01-20 17:51:00,
2013-01-20 11:23:00,21.0,13.0,-100.00,NNW,344,11.0,17.0,71,0.00,,,0.00,137.000000,,2013-01-20 18:23:00,
2013-01-20 11:33:00,21.0,13.0,-100.00,NNW,344,11.0,17.0,71,0.00,,,0.00,137.000000,,2013-01-20 18:33:00,
2013-01-20 11:43:00,21.0,13.0,-100.00,NNW,344,11.0,17.0,71,0.00,,,0.00,137.000000,,2013-01-20 18:43:00,
2013-01-20 11:51:00,21.0,12.0,-100.00,NNW,337,10.0,16.0,69,0.00,,,0.00,124.000000,,2013-01-20 18:51:00,
2013-01-20 12:12:00,21.0,12.0,-100.00,NNW,337,10.0,16.0,69,0.00,,,0.00,124.000000,,2013-01-20 19:12:00,
2013-01-20 12:22:00,21.0,12.0,-100.00,NNW,337,10.0,16.0,69,0.00,,,0.00,124.000000,,2013-01-20 19:22:00,
2013-01-20 12:33:00,21.0,12.0,-100.00,NNW,337,10.0,16.0,69,0.00,,,0.00,124.000000,,2013-01-20 19:33:00,
2013-01-20 12:43:00,21.0,12.0,-100.00,NNW,337,10.0,16.0,69,0.00,,,0.00,124.000000,,2013-01-20 19:43:00,
2013-01-20 12:51:00,21.0,12.0,-100.00,North,354,11.0,15.0,68,0.00,,,0.00,196.000000,,2013-01-20 19:51:00,
2013-01-20 13:23:00,21.0,12.0,-100.00,North,354,11.0,15.0,68,0.00,,,0.00,196.000000,,2013-01-20 20:23:00,
2013-01-20 13:33:00,21.0,12.0,-100.00,North,354,11.0,15.0,68,0.00,,,0.00,196.000000,,2013-01-20 20:33:00,
2013-01-20 13:42:00,21.0,12.0,-100.00,North,354,11.0,15.0,68,0.00,,,0.00,196.000000,,2013-01-20 20:42:00,
2013-01-20 13:51:00,22.0,13.0,-100.00,NW,320,12.0,15.0,67,0.00,,,0.00,130.000000,,2013-01-20 20:51:00,
2013-01-20 14:13:00,22.0,13.0,-100.00,NW,320,12.0,15.0,67,0.00,,,0.00,130.000000,,2013-01-20 21:13:00,
2013-01-20 14:23:00,22.0,13.0,-100.00,NW,320,12.0,15.0,67,0.00,,,0.00,130.000000,,2013-01-20 21:23:00,
2013-01-20 14:33:00,22.0,13.0,-100.00,NW,320,12.0,15.0,67,0.00,,,0.00,130.000000,,2013-01-20 21:33:00,
2013-01-20 14:43:00,22.0,13.0,-100.00,NW,320,12.0,15.0,67,0.00,,,0.00,130.000000,,2013-01-20 21:43:00,
2013-01-20 14:51:00,22.0,13.0,-100.00,NW,321,9.0,18.0,67,0.00,,,0.00,177.000000,,2013-01-20 21:51:00,
2013-01-20 15:23:00,22.0,13.0,-100.00,NW,321,9.0,18.0,67,0.00,,,0.00,177.000000,,2013-01-20 22:23:00,
2013-01-20 15:33:00,22.0,13.0,-100.00,NW,321,9.0,18.0,67,0.00,,,0.00,177.000000,,2013-01-20 22:33:00,
2013-01-20 15:43:00,22.0,13.0,-100.00,NW,321,9.0,18.0,67,0.00,,,0.00,177.000000,,2013-01-20 22:43:00,
2013-01-20 15:51:00,21.0,12.0,-100.00,North,354,7.0,12.0,67,0.00,,,0.00,134.000000,,2013-01-20 22:51:00,
2013-01-20 16:13:00,21.0,12.0,-100.00,North,354,7.0,12.0,67,0.00,,,0.00,134.000000,,2013-01-20 23:13:00,
2013-01-20 16:23:00,21.0,12.0,-100.00,North,354,7.0,12.0,67,0.00,,,0.00,134.000000,,2013-01-20 23:23:00,
2013-01-20 16:33:00,21.0,12.0,-100.00,North,354,7.0,12.0,67,0.00,,,0.00,134.000000,,2013-01-20 23:33:00,
2013-01-20 16:43:00,21.0,12.0,-100.00,North,354,7.0,12.0,67,0.00,,,0.00,134.000000,,2013-01-20 23:43:00,
2013-01-20 16:51:00,20.0,11.0,-100.00,NW,325,5.0,10.0,69,0.00,,,0.00,44.000000,,2013-01-20 23:51:00,
2013-01-20 17:23:00,20.0,11.0,-100.00,NW,325,5.0,10.0,69,0.00,,,0.00,44.000000,,2013-01-21 00:23:00,
2013-01-20 17:33:00,20.0,11.0,-100.00,NW,325,5.0,10.0,69,0.00,,,0.00,44.000000,,2013-01-21 00:33:00,
2013-01-20 17:43:00,20.0,11.0,-100.00,NW,325,5.0,10.0,69,0.00,,,0.00,44.000000,,2013-01-21 00:43:00,
2013-01-20 17:51:00,18.0,11.0,-100.00,NNW,342,4.0,7.0,75,0.00,,,0.00,2.000000,,2013-01-21 00:51:00,
2013-01-20 18:13:00,18.0,11.0,-100.00,NNW,342,4.0,7.0,75,0.00,,,0.00,2.000000,,2013-01-21 01:13:00,
2013-01-20 18:23:00,18.0,11.0,-100.00,NNW,342,4.0,7.0,75,0.00,,,0.00,2.000000,,2013-01-21 01:23:00,
2013-01-20 18:33:00,18.0,11.0,-100.00,NNW,342,4.0,7.0,75,0.00,,,0.00,2.000000,,2013-01-21 01:33:00,
2013-01-20 18:43:00,18.0,11.0,-100.00,NNW,342,4.0,7.0,75,0.00,,,0.00,2.000000,,2013-01-21 01:43:00,
2013-01-20 18:51:00,18.0,11.0,-100.00,NNW,333,2.0,6.0,75,0.00,,,0.00,0.000000,,2013-01-21 01:51:00,
2013-01-20 19:23:00,18.0,11.0,-100.00,NNW,333,2.0,6.0,75,0.00,,,0.00,0.000000,,2013-01-21 02:23:00,
2013-01-20 19:33:00,18.0,11.0,-100.00,NNW,333,2.0,6.0,75,0.00,,,0.00,0.000000,,2013-01-21 02:33:00,
2013-01-20 19:43:00,18.0,11.0,-100.00,NNW,333,2.0,6.0,75,0.00,,,0.00,0.000000,,2013-01-21 02:43:00,
2013-01-20 19:51:00,18.0,12.0,-100.00,WNW,303,1.0,5.0,77,0.00,,,0.00,0.000000,,2013-01-21 02:51:00,
2013-01-20 20:23:00,18.0,12.0,-100.00,WNW,303,1.0,5.0,77,0.00,,,0.00,0.000000,,2013-01-21 03:23:00,
2013-01-20 20:33:00,18.0,12.0,-100.00,WNW,303,1.0,5.0,77,0.00,,,0.00,0.000000,,2013-01-21 03:33:00,
2013-01-20 20:43:00,18.0,12.0,-100.00,WNW,303,1.0,5.0,77,0.00,,,0.00,0.000000,,2013-01-21 03:43:00,
2013-01-20 20:51:00,19.0,12.0,-100.00,NW,323,4.0,7.0,75,0.00,,,0.00,0.000000,,2013-01-21 03:51:00,
2013-01-20 21:12:00,19.0,12.0,-100.00,NW,323,4.0,7.0,75,0.00,,,0.00,0.000000,,2013-01-21 04:12:00,
2013-01-20 21:23:00,19.0,12.0,-100.00,NW,323,4.0,7.0,75,0.00,,,0.00,0.000000,,2013-01-21 04:23:00,
2013-01-20 21:33:00,19.0,12.0,-100.00,NW,323,4.0,7.0,75,0.00,,,0.00,0.000000,,2013-01-21 04:33:00,
2013-01-20 21:43:00,19.0,12.0,-100.00,NW,323,4.0,7.0,75,0.00,,,0.00,0.000000,,2013-01-21 04:43:00,
2013-01-20 21:51:00,19.0,12.0,-100.00,WNW,296,5.0,7.0,75,0.00,,,0.00,0.000000,,2013-01-21 04:51:00,
2013-01-20 22:12:00,19.0,12.0,-100.00,WNW,296,5.0,7.0,75,0.00,,,0.00,0.000000,,2013-01-21 05:12:00,
2013-01-20 22:22:00,19.0,12.0,-100.00,WNW,296,5.0,7.0,75,0.00,,,0.00,0.000000,,2013-01-21 05:22:00,
2013-01-20 22:34:00,19.0,12.0,-100.00,WNW,296,5.0,7.0,75,0.00,,,0.00,0.000000,,2013-01-21 05:34:00,
2013-01-20 22:42:00,19.0,12.0,-100.00,WNW,296,5.0,7.0,75,0.00,,,0.00,0.000000,,2013-01-21 05:42:00,
2013-01-20 22:51:00,18.0,11.0,-100.00,NNW,331,5.0,9.0,74,0.00,,,0.00,0.000000,,2013-01-21 05:51:00,
2013-01-20 23:13:00,18.0,11.0,-100.00,NNW,331,5.0,9.0,74,0.00,,,0.00,0.000000,,2013-01-21 06:13:00,
2013-01-20 23:23:00,18.0,11.0,-100.00,NNW,331,5.0,9.0,74,0.00,,,0.00,0.000000,,2013-01-21 06:23:00,
2013-01-20 23:33:00,18.0,11.0,-100.00,NNW,331,5.0,9.0,74,0.00,,,0.00,0.000000,,2013-01-21 06:33:00,
2013-01-20 23:43:00,18.0,11.0,-100.00,NNW,331,5.0,9.0,74,0.00,,,0.00,0.000000,,2013-01-21 06:43:00,
2013-01-20 23:51:00,18.0,12.0,-100.00,WNW,301,4.0,7.0,77,0.00,,,0.00,0.000000,,2013-01-21 06:51:00,